AMB412 EDWX-EDXH
Flight info
| Callsign | AMB412 |
|---|---|
| Flight time | 0h 35m |
| Altitude | 4500 |
| Route | GASTU/N0159F060 |
| Aircraft | B412/L-SDFGRY/C |
Departure
| Time | 2026-04-27 15:45 |
|---|---|
| Airport | Westerstede-Felde Airfield (EDWX) |
Arrival
| Time | 2026-04-27 16:20 |
|---|---|
| Airport | Helgoland-Düne Airport (EDXH) |
| Time | Latitude | Longitude | Altitude | Speed | Heading |
|---|---|---|---|---|---|
| 2026-04-27 15:24 | 53.28898 | 7.93063 | 35 ft | 0 kts | 79° |
| 2026-04-27 15:41 | 53.28898 | 7.93064 | 35 ft | 0 kts | 79° |
| 2026-04-27 15:43 | 53.28898 | 7.93076 | 44 ft | 5 kts | 139° |
| 2026-04-27 15:43 | 53.28857 | 7.93068 | 51 ft | 15 kts | 282° |
| 2026-04-27 15:43 | 53.28804 | 7.92830 | 60 ft | 25 kts | 256° |
| 2026-04-27 15:43 | 53.28753 | 7.92684 | 62 ft | 9 kts | 175° |
| 2026-04-27 15:44 | 53.28764 | 7.92712 | 57 ft | 14 kts | 76° |
| 2026-04-27 15:44 | 53.28903 | 7.93220 | 130 ft | 76 kts | 64° |
| 2026-04-27 15:44 | 53.29153 | 7.94154 | 285 ft | 96 kts | 70° |
| 2026-04-27 15:44 | 53.29374 | 7.95205 | 505 ft | 97 kts | 72° |
| 2026-04-27 15:45 | 53.29559 | 7.96283 | 752 ft | 96 kts | 77° |
| 2026-04-27 15:45 | 53.29688 | 7.97376 | 1006 ft | 96 kts | 81° |
| 2026-04-27 15:45 | 53.29899 | 7.98442 | 1214 ft | 98 kts | 65° |
| 2026-04-27 15:45 | 53.30284 | 7.99396 | 1431 ft | 99 kts | 58° |
| 2026-04-27 15:46 | 53.30664 | 8.00331 | 1684 ft | 96 kts | 60° |
| 2026-04-27 15:46 | 53.31014 | 8.01256 | 1934 ft | 94 kts | 62° |
| 2026-04-27 15:46 | 53.31342 | 8.02195 | 2184 ft | 94 kts | 64° |
| 2026-04-27 15:46 | 53.31652 | 8.03151 | 2431 ft | 94 kts | 66° |
| 2026-04-27 15:47 | 53.31945 | 8.04125 | 2673 ft | 94 kts | 68° |
| 2026-04-27 15:47 | 53.32219 | 8.05109 | 2910 ft | 94 kts | 70° |
| 2026-04-27 15:47 | 53.32481 | 8.06123 | 3144 ft | 95 kts | 71° |
| 2026-04-27 15:47 | 53.32724 | 8.07144 | 3371 ft | 95 kts | 73° |
| 2026-04-27 15:48 | 53.32956 | 8.08193 | 3601 ft | 96 kts | 74° |
| 2026-04-27 15:48 | 53.33172 | 8.09248 | 3825 ft | 96 kts | 75° |
| 2026-04-27 15:48 | 53.33371 | 8.10310 | 4042 ft | 97 kts | 76° |
| 2026-04-27 15:49 | 53.33736 | 8.12483 | 4458 ft | 98 kts | 77° |
| 2026-04-27 15:49 | 53.33928 | 8.13582 | 4594 ft | 97 kts | 68° |
| 2026-04-27 15:49 | 53.34210 | 8.14588 | 4548 ft | 97 kts | 41° |
| 2026-04-27 15:49 | 53.34888 | 8.14869 | 4468 ft | 115 kts | 5° |
| 2026-04-27 15:50 | 53.35728 | 8.14788 | 4481 ft | 125 kts | 350° |
| 2026-04-27 15:50 | 53.36588 | 8.14326 | 4481 ft | 133 kts | 342° |
| 2026-04-27 15:50 | 53.37466 | 8.13825 | 4494 ft | 134 kts | 345° |
| 2026-04-27 15:50 | 53.38361 | 8.13376 | 4500 ft | 135 kts | 346° |
| 2026-04-27 15:51 | 53.39248 | 8.12924 | 4499 ft | 132 kts | 345° |
| 2026-04-27 15:51 | 53.40126 | 8.12468 | 4466 ft | 133 kts | 345° |
| 2026-04-27 15:51 | 53.41018 | 8.12008 | 4294 ft | 134 kts | 345° |
| 2026-04-27 15:51 | 53.41909 | 8.11545 | 4099 ft | 135 kts | 345° |
| 2026-04-27 15:52 | 53.42795 | 8.11085 | 3906 ft | 134 kts | 346° |
| 2026-04-27 15:52 | 53.43677 | 8.10630 | 3710 ft | 133 kts | 346° |
| 2026-04-27 15:52 | 53.44564 | 8.10173 | 3507 ft | 133 kts | 346° |
| 2026-04-27 15:52 | 53.45454 | 8.09717 | 3300 ft | 134 kts | 346° |
| 2026-04-27 15:53 | 53.46344 | 8.09255 | 3100 ft | 133 kts | 346° |
| 2026-04-27 15:53 | 53.47221 | 8.08800 | 2900 ft | 131 kts | 346° |
| 2026-04-27 15:53 | 53.48101 | 8.08342 | 2700 ft | 132 kts | 347° |
| 2026-04-27 15:53 | 53.48974 | 8.07899 | 2612 ft | 131 kts | 347° |
| 2026-04-27 15:54 | 53.49846 | 8.07451 | 2547 ft | 130 kts | 347° |
| 2026-04-27 15:54 | 53.50704 | 8.07005 | 2512 ft | 130 kts | 347° |
| 2026-04-27 15:54 | 53.51577 | 8.06554 | 2505 ft | 130 kts | 347° |
| 2026-04-27 15:54 | 53.52437 | 8.06115 | 2497 ft | 131 kts | 347° |
| 2026-04-27 15:55 | 53.53318 | 8.05664 | 2511 ft | 131 kts | 346° |
| 2026-04-27 15:55 | 53.53896 | 8.05364 | 2517 ft | 129 kts | 347° |
| 2026-04-27 15:55 | 53.55052 | 8.04762 | 2510 ft | 131 kts | 347° |
| 2026-04-27 15:55 | 53.55929 | 8.04314 | 2499 ft | 132 kts | 347° |
| 2026-04-27 15:56 | 53.56803 | 8.03862 | 2500 ft | 131 kts | 347° |
| 2026-04-27 15:56 | 53.57672 | 8.03408 | 2504 ft | 130 kts | 347° |
| 2026-04-27 15:56 | 53.58528 | 8.02965 | 2508 ft | 130 kts | 347° |
| 2026-04-27 15:56 | 53.59396 | 8.02520 | 2508 ft | 131 kts | 347° |
| 2026-04-27 15:57 | 53.59737 | 8.02345 | 2507 ft | 132 kts | 347° |
| 2026-04-27 15:59 | 53.60001 | 8.02209 | 2506 ft | 132 kts | 347° |
| 2026-04-27 15:59 | 53.60881 | 8.01751 | 2510 ft | 130 kts | 347° |
| 2026-04-27 15:59 | 53.61745 | 8.01304 | 2507 ft | 131 kts | 347° |
| 2026-04-27 15:59 | 53.62628 | 8.00846 | 2506 ft | 132 kts | 347° |
| 2026-04-27 16:00 | 53.63511 | 8.00460 | 2512 ft | 128 kts | 355° |
| 2026-04-27 16:00 | 53.64094 | 8.00337 | 2511 ft | 128 kts | 359° |
| 2026-04-27 16:00 | 53.65276 | 8.00173 | 2507 ft | 129 kts | 359° |
| 2026-04-27 16:00 | 53.66173 | 8.00033 | 2505 ft | 129 kts | 358° |
| 2026-04-27 16:01 | 53.67071 | 7.99885 | 2504 ft | 129 kts | 358° |
| 2026-04-27 16:01 | 53.67963 | 7.99742 | 2510 ft | 129 kts | 358° |
| 2026-04-27 16:01 | 53.68865 | 7.99596 | 2521 ft | 129 kts | 358° |
| 2026-04-27 16:01 | 53.69750 | 7.99458 | 2522 ft | 129 kts | 358° |
| 2026-04-27 16:02 | 53.70655 | 7.99313 | 2521 ft | 129 kts | 358° |
| 2026-04-27 16:02 | 53.71540 | 7.99169 | 2521 ft | 129 kts | 358° |
| 2026-04-27 16:02 | 53.72434 | 7.99025 | 2520 ft | 129 kts | 358° |
| 2026-04-27 16:02 | 53.73336 | 7.98880 | 2520 ft | 129 kts | 358° |
| 2026-04-27 16:03 | 53.74220 | 7.98737 | 2523 ft | 129 kts | 358° |
| 2026-04-27 16:03 | 53.75116 | 7.98595 | 2527 ft | 129 kts | 358° |
| 2026-04-27 16:03 | 53.76013 | 7.98450 | 2525 ft | 129 kts | 358° |
| 2026-04-27 16:03 | 53.76902 | 7.98308 | 2523 ft | 128 kts | 358° |
| 2026-04-27 16:04 | 53.77790 | 7.98165 | 2520 ft | 128 kts | 358° |
| 2026-04-27 16:04 | 53.78676 | 7.98022 | 2518 ft | 128 kts | 358° |
| 2026-04-27 16:04 | 53.79571 | 7.97878 | 2514 ft | 129 kts | 358° |
| 2026-04-27 16:04 | 53.80468 | 7.97736 | 2512 ft | 130 kts | 358° |
| 2026-04-27 16:05 | 53.81370 | 7.97591 | 2516 ft | 130 kts | 358° |
| 2026-04-27 16:05 | 53.82261 | 7.97444 | 2523 ft | 128 kts | 358° |
| 2026-04-27 16:05 | 53.83146 | 7.97299 | 2521 ft | 129 kts | 358° |
| 2026-04-27 16:05 | 53.84042 | 7.97159 | 2516 ft | 129 kts | 358° |
| 2026-04-27 16:06 | 53.84940 | 7.97013 | 2513 ft | 130 kts | 358° |
| 2026-04-27 16:06 | 53.85846 | 7.96867 | 2511 ft | 130 kts | 358° |
| 2026-04-27 16:06 | 53.86748 | 7.96721 | 2507 ft | 130 kts | 358° |
| 2026-04-27 16:06 | 53.87652 | 7.96574 | 2510 ft | 130 kts | 358° |
| 2026-04-27 16:07 | 53.88553 | 7.96429 | 2517 ft | 130 kts | 358° |
| 2026-04-27 16:07 | 53.89447 | 7.96284 | 2521 ft | 130 kts | 358° |
| 2026-04-27 16:07 | 53.90352 | 7.96139 | 2529 ft | 130 kts | 358° |
| 2026-04-27 16:07 | 53.91248 | 7.95994 | 2531 ft | 130 kts | 358° |
| 2026-04-27 16:08 | 53.92153 | 7.95847 | 2526 ft | 129 kts | 358° |
| 2026-04-27 16:08 | 53.93056 | 7.95699 | 2523 ft | 129 kts | 358° |
| 2026-04-27 16:08 | 53.93943 | 7.95553 | 2523 ft | 129 kts | 358° |
| 2026-04-27 16:08 | 53.94838 | 7.95410 | 2521 ft | 129 kts | 358° |
| 2026-04-27 16:09 | 53.95737 | 7.95262 | 2521 ft | 129 kts | 358° |
| 2026-04-27 16:09 | 53.97519 | 7.94974 | 2522 ft | 129 kts | 358° |
| 2026-04-27 16:09 | 53.98414 | 7.94830 | 2523 ft | 129 kts | 358° |
| 2026-04-27 16:10 | 54.00200 | 7.94540 | 2529 ft | 128 kts | 358° |
| 2026-04-27 16:10 | 54.01980 | 7.94251 | 2522 ft | 130 kts | 358° |
| 2026-04-27 16:11 | 54.02886 | 7.94101 | 2522 ft | 130 kts | 358° |
| 2026-04-27 16:11 | 54.04697 | 7.93810 | 2535 ft | 130 kts | 358° |
| 2026-04-27 16:12 | 54.06486 | 7.93513 | 2533 ft | 130 kts | 358° |
| 2026-04-27 16:12 | 54.07386 | 7.93369 | 2533 ft | 130 kts | 358° |
| 2026-04-27 16:12 | 54.09172 | 7.93074 | 2536 ft | 129 kts | 358° |
| 2026-04-27 16:13 | 54.10068 | 7.92929 | 2531 ft | 130 kts | 358° |
| 2026-04-27 16:13 | 54.11898 | 7.92635 | 2534 ft | 131 kts | 358° |
| 2026-04-27 16:13 | 54.12801 | 7.92484 | 2538 ft | 130 kts | 358° |
| 2026-04-27 16:14 | 54.14602 | 7.92206 | 2547 ft | 129 kts | 2° |
| 2026-04-27 16:14 | 54.16171 | 7.91210 | 2305 ft | 128 kts | 300° |
| 2026-04-27 16:15 | 54.16491 | 7.88307 | 1960 ft | 125 kts | 298° |
| 2026-04-27 16:15 | 54.17615 | 7.86215 | 1673 ft | 116 kts | 327° |
| 2026-04-27 16:16 | 54.19009 | 7.85861 | 1317 ft | 92 kts | 20° |
| 2026-04-27 16:16 | 54.19440 | 7.87610 | 826 ft | 109 kts | 109° |
| 2026-04-27 16:17 | 54.18122 | 7.88774 | 581 ft | 117 kts | 185° |
| 2026-04-27 16:17 | 54.16701 | 7.88678 | 580 ft | 104 kts | 118° |
| 2026-04-27 16:18 | 54.17203 | 7.90449 | 470 ft | 84 kts | 26° |
| 2026-04-27 16:18 | 54.18120 | 7.91135 | 261 ft | 63 kts | 20° |
| 2026-04-27 16:19 | 54.18485 | 7.91358 | 222 ft | 50 kts | 16° |
| 2026-04-27 16:19 | 54.18842 | 7.91299 | 218 ft | 72 kts | 324° |
| 2026-04-27 16:20 | 54.17758 | 7.89484 | 227 ft | 59 kts | 189° |
| 2026-04-27 16:20 | 54.17375 | 7.89267 | 229 ft | 60 kts | 204° |
| 2026-04-27 16:20 | 54.17097 | 7.88664 | 244 ft | 39 kts | 39° |
| 2026-04-27 16:21 | 54.17370 | 7.88927 | 182 ft | 41 kts | 20° |
| 2026-04-27 16:21 | 54.17522 | 7.89065 | 46 ft | 9 kts | 246° |
| 2026-04-27 16:22 | 54.17496 | 7.89018 | 35 ft | 1 kts | 231° |
| 2026-04-27 16:22 | 54.17494 | 7.89008 | 16 ft | 0 kts | 225° |